Time;durP1;ratioP1;P1;durP2;ratioP2;P2;SDS_P1;SDS_P2;PMS_P1;PMS_P2;Temp;Humidity;BMP_temperature;BMP_pressure;BME280_temperature;BME280_humidity;BME280_pressure;Samples;Min_cycle;Max_cycle;Signal;HPM_P1;HPM_P2
2022/04/05 00:00:42;;;;;;;1.20;1.20;;;8.80;99.90;;;;;;4995619;28;20246;-67
2022/04/05 00:03:09;;;;;;;1.30;1.30;;;8.70;99.90;;;;;;4994951;28;20210;-63
2022/04/05 00:05:36;;;;;;;1.50;1.40;;;8.80;99.90;;;;;;4994877;28;20321;-67
2022/04/05 00:08:03;;;;;;;1.20;1.20;;;8.70;99.90;;;;;;4994242;28;20210;-66
2022/04/05 00:10:31;;;;;;;1.20;1.20;;;8.70;99.90;;;;;;4985478;28;20530;-66
2022/04/05 00:12:59;;;;;;;1.40;1.40;;;8.70;99.90;;;;;;4998273;28;20213;-69
2022/04/05 00:15:25;;;;;;;1.43;1.40;;;8.70;99.90;;;;;;4994394;28;20230;-66
2022/04/05 00:17:52;;;;;;;1.20;1.20;;;8.70;99.90;;;;;;4994559;28;20318;-67
2022/04/05 00:20:19;;;;;;;1.10;1.10;;;8.60;99.90;;;;;;4995407;28;20249;-66
2022/04/05 00:22:46;;;;;;;1.50;1.50;;;8.60;99.90;;;;;;4994457;28;20289;-67
2022/04/05 00:25:13;;;;;;;1.40;1.30;;;8.70;99.90;;;;;;4992203;28;20316;-67
2022/04/05 00:27:41;;;;;;;1.30;1.30;;;8.60;99.90;;;;;;4992329;28;20240;-66
2022/04/05 00:30:09;;;;;;;1.20;1.20;;;8.50;99.90;;;;;;4994171;28;20229;-65
2022/04/05 00:32:38;;;;;;;1.37;1.37;;;8.50;99.90;;;;;;4993372;28;20202;-64
2022/04/05 00:35:05;;;;;;;1.63;1.57;;;8.50;99.90;;;;;;4989742;28;20269;-67
2022/04/05 00:37:32;;;;;;;1.20;1.20;;;8.50;99.90;;;;;;4994230;28;20212;-65
2022/04/05 00:39:59;;;;;;;1.30;1.30;;;8.50;99.90;;;;;;4994337;28;20230;-66
2022/04/05 00:42:26;;;;;;;1.37;1.37;;;8.50;99.90;;;;;;4993950;28;20205;-67
2022/04/05 00:44:54;;;;;;;1.47;1.37;;;8.50;99.90;;;;;;4993907;28;20317;-65
2022/04/05 00:47:22;;;;;;;1.30;1.30;;;8.50;99.90;;;;;;4994040;28;20208;-67
2022/04/05 00:49:54;;;;;;;1.30;1.30;;;8.50;99.90;;;;;;4993856;28;20728;-66
2022/04/05 00:52:24;;;;;;;1.17;1.17;;;8.50;99.90;;;;;;4994212;28;20335;-67
2022/04/05 00:54:53;;;;;;;1.17;1.17;;;8.60;99.90;;;;;;4994968;28;20859;-66
2022/04/05 00:57:22;;;;;;;1.50;1.40;;;8.50;99.90;;;;;;5008047;28;20664;-68
2022/04/05 00:59:54;;;;;;;1.30;1.30;;;8.50;99.90;;;;;;4994241;28;20719;-68
2022/04/05 01:02:23;;;;;;;1.30;1.30;;;8.40;99.90;;;;;;4996659;28;20241;-67
2022/04/05 01:04:50;;;;;;;1.60;1.50;;;8.40;99.90;;;;;;5005377;28;20222;-66
2022/04/05 01:07:21;;;;;;;1.50;1.50;;;8.40;99.90;;;;;;4997738;28;20198;-66
2022/04/05 01:09:48;;;;;;;1.27;1.27;;;8.40;99.90;;;;;;4992606;28;20744;-68
2022/04/05 01:12:15;;;;;;;1.20;1.20;;;8.30;99.90;;;;;;4996901;28;20257;-69
2022/04/05 01:14:42;;;;;;;1.40;1.30;;;8.40;99.90;;;;;;4994734;28;20308;-68
2022/04/05 01:17:09;;;;;;;1.33;1.33;;;8.40;99.90;;;;;;4992436;28;20210;-66
2022/04/05 01:19:37;;;;;;;1.30;1.30;;;8.40;99.90;;;;;;4992759;28;20253;-66
2022/04/05 01:22:05;;;;;;;1.30;1.30;;;8.40;99.90;;;;;;4990720;28;20212;-67
2022/04/05 01:24:34;;;;;;;1.90;1.80;;;8.40;99.90;;;;;;4989817;28;20222;-67
2022/04/05 01:27:06;;;;;;;1.40;1.40;;;8.30;99.90;;;;;;4975836;28;20202;-67
2022/04/05 01:29:34;;;;;;;1.30;1.30;;;8.30;99.90;;;;;;4977331;28;20294;-66
2022/04/05 01:32:03;;;;;;;1.50;1.40;;;8.30;99.90;;;;;;4975507;28;20253;-66
2022/04/05 01:34:32;;;;;;;1.70;1.60;;;8.20;99.90;;;;;;4972520;28;20233;-66
2022/04/05 01:37:01;;;;;;;1.30;1.30;;;8.20;99.90;;;;;;4979585;28;20717;-62
2022/04/05 01:39:31;;;;;;;1.20;1.20;;;8.20;99.90;;;;;;4976056;28;20218;-67
2022/04/05 01:42:02;;;;;;;1.40;1.40;;;8.20;99.90;;;;;;4973007;28;20237;-67
2022/04/05 01:44:30;;;;;;;1.58;1.48;;;8.20;99.90;;;;;;4974899;28;20308;-67
2022/04/05 01:46:57;;;;;;;1.53;1.43;;;8.20;99.90;;;;;;4975554;28;20240;-65
2022/04/05 01:49:24;;;;;;;1.30;1.30;;;8.20;99.90;;;;;;4975475;28;20203;-67
2022/04/05 01:51:51;;;;;;;1.23;1.23;;;8.20;99.90;;;;;;4975459;28;20274;-66
2022/04/05 01:54:19;;;;;;;1.60;1.50;;;8.20;99.90;;;;;;4975001;28;20226;-65
2022/04/05 01:56:47;;;;;;;1.70;1.60;;;8.30;99.90;;;;;;4975084;28;20755;-66
2022/04/05 01:59:17;;;;;;;1.50;1.40;;;8.30;99.90;;;;;;4975624;28;20219;-67
2022/04/05 02:01:44;;;;;;;1.40;1.40;;;8.30;99.90;;;;;;4982007;28;20238;-66
2022/04/05 02:04:12;;;;;;;1.60;1.50;;;8.30;99.90;;;;;;4978871;28;20664;-67
2022/04/05 02:06:39;;;;;;;1.30;1.30;;;8.30;99.90;;;;;;4990104;28;20293;-70
2022/04/05 02:09:06;;;;;;;1.20;1.20;;;8.30;99.90;;;;;;4997969;28;20183;-65
2022/04/05 02:11:35;;;;;;;1.30;1.30;;;8.30;99.90;;;;;;5007477;28;20210;-66
2022/04/05 02:14:02;;;;;;;1.37;1.37;;;8.30;99.90;;;;;;4999476;28;20206;-62
2022/04/05 02:16:30;;;;;;;1.20;1.20;;;8.30;99.90;;;;;;4980286;28;20206;-66
2022/04/05 02:18:58;;;;;;;1.30;1.30;;;8.40;99.90;;;;;;4983252;28;20258;-67
2022/04/05 02:21:26;;;;;;;1.20;1.20;;;8.30;99.90;;;;;;4978188;28;20772;-68
2022/04/05 02:23:52;;;;;;;1.50;1.40;;;8.30;99.90;;;;;;4984224;28;20233;-68
2022/04/05 02:26:20;;;;;;;1.07;1.07;;;8.30;99.90;;;;;;4975339;28;20210;-65
2022/04/05 02:28:47;;;;;;;1.20;1.20;;;8.30;99.90;;;;;;4975025;28;20198;-67
2022/04/05 02:31:14;;;;;;;1.20;1.20;;;8.30;99.90;;;;;;4977691;28;20583;-66
2022/04/05 02:33:42;;;;;;;1.60;1.50;;;8.30;99.90;;;;;;4972282;28;20249;-68
2022/04/05 02:36:09;;;;;;;1.30;1.30;;;8.30;99.90;;;;;;4972671;28;20282;-67
2022/04/05 02:38:37;;;;;;;1.33;1.33;;;8.40;99.90;;;;;;4972208;28;20584;-66
2022/04/05 02:41:06;;;;;;;1.30;1.30;;;8.40;99.90;;;;;;4972271;28;20265;-68
2022/04/05 02:43:33;;;;;;;1.20;1.20;;;8.30;99.90;;;;;;4974261;28;20599;-68
2022/04/05 02:46:01;;;;;;;1.10;1.10;;;8.30;99.90;;;;;;4972738;28;20341;-66
2022/04/05 02:48:28;;;;;;;1.47;1.40;;;8.30;99.90;;;;;;4982539;28;20202;-65
2022/04/05 02:50:56;;;;;;;1.17;1.17;;;8.30;99.90;;;;;;4982292;28;20207;-68
2022/04/05 02:53:23;;;;;;;1.23;1.23;;;8.30;99.90;;;;;;4984488;28;20253;-65
2022/04/05 02:55:50;;;;;;;1.30;1.30;;;8.30;99.90;;;;;;4973727;28;20234;-67
2022/04/05 02:58:17;;;;;;;1.40;1.30;;;8.30;99.90;;;;;;4977924;28;20220;-68
2022/04/05 03:00:44;;;;;;;1.20;1.20;;;8.30;99.90;;;;;;4977993;28;20241;-68
2022/04/05 03:03:10;;;;;;;1.40;1.40;;;8.30;99.90;;;;;;4979203;28;20234;-67
2022/04/05 03:05:37;;;;;;;1.20;1.20;;;8.40;99.90;;;;;;4978158;28;20226;-68
2022/04/05 03:08:06;;;;;;;1.53;1.43;;;8.30;99.90;;;;;;4976754;28;20213;-67
2022/04/05 03:10:33;;;;;;;1.43;1.43;;;8.30;99.90;;;;;;4973969;28;20195;-68
2022/04/05 03:13:01;;;;;;;1.33;1.30;;;8.30;99.90;;;;;;4976321;28;20705;-63
2022/04/05 03:15:28;;;;;;;1.20;1.20;;;8.40;99.90;;;;;;4982531;28;20692;-68
2022/04/05 03:17:58;;;;;;;1.47;1.47;;;8.40;99.90;;;;;;4976601;28;20217;-69
2022/04/05 03:20:25;;;;;;;1.48;1.38;;;8.40;99.90;;;;;;4981985;28;20225;-67
2022/04/05 03:22:53;;;;;;;1.50;1.40;;;8.40;99.90;;;;;;4981197;28;20751;-67
2022/04/05 03:25:23;;;;;;;1.37;1.37;;;8.40;99.90;;;;;;4972106;28;20309;-67
2022/04/05 03:27:50;;;;;;;1.23;1.23;;;8.40;99.90;;;;;;4977317;28;20202;-67
2022/04/05 03:30:19;;;;;;;1.30;1.30;;;8.40;99.90;;;;;;4978755;28;20194;-67
2022/04/05 03:32:46;;;;;;;1.57;1.47;;;8.40;99.90;;;;;;4975590;28;20206;-67
2022/04/05 03:35:13;;;;;;;1.63;1.53;;;8.40;99.90;;;;;;4982850;28;20885;-68
2022/04/05 03:37:40;;;;;;;1.40;1.30;;;8.40;99.90;;;;;;4975426;28;20213;-67
2022/04/05 03:40:08;;;;;;;1.30;1.30;;;8.40;99.90;;;;;;4994466;28;20337;-65
2022/04/05 03:42:37;;;;;;;1.40;1.40;;;8.40;99.90;;;;;;4995344;28;20293;-67
2022/04/05 03:45:04;;;;;;;1.23;1.23;;;8.40;99.90;;;;;;4992239;28;20261;-65
2022/04/05 03:47:31;;;;;;;1.35;1.30;;;8.30;99.90;;;;;;4993113;28;20234;-66
2022/04/05 03:49:58;;;;;;;1.10;1.10;;;8.30;99.90;;;;;;4994161;28;20221;-67
2022/04/05 03:52:25;;;;;;;1.50;1.40;;;8.30;99.90;;;;;;4995179;28;20684;-67
2022/04/05 03:54:52;;;;;;;1.47;1.40;;;8.20;99.90;;;;;;4994438;28;20257;-67
2022/04/05 03:57:19;;;;;;;1.50;1.50;;;8.30;99.90;;;;;;4995825;28;20205;-67
2022/04/05 03:59:47;;;;;;;1.40;1.40;;;8.30;99.90;;;;;;4995253;28;20261;-67
2022/04/05 04:02:14;;;;;;;1.23;1.23;;;8.30;99.90;;;;;;4994461;28;20210;-66
2022/04/05 04:04:41;;;;;;;1.30;1.30;;;8.30;99.90;;;;;;4994565;28;20601;-67
2022/04/05 04:07:08;;;;;;;1.20;1.20;;;8.20;99.90;;;;;;4994756;28;20587;-66
2022/04/05 04:09:35;;;;;;;1.20;1.20;;;8.20;99.90;;;;;;4998369;28;20559;-67
2022/04/05 04:12:03;;;;;;;1.43;1.43;;;8.20;99.90;;;;;;4999076;28;20210;-67
2022/04/05 04:14:31;;;;;;;1.30;1.30;;;8.10;99.90;;;;;;4997861;28;20230;-66
2022/04/05 04:17:00;;;;;;;1.23;1.23;;;8.00;99.90;;;;;;4998435;28;20252;-66
2022/04/05 04:19:26;;;;;;;1.35;1.33;;;8.00;99.90;;;;;;4998900;28;20258;-66
2022/04/05 04:21:53;;;;;;;1.30;1.30;;;7.90;99.90;;;;;;4996841;28;20210;-67
2022/04/05 04:24:20;;;;;;;1.73;1.60;;;8.00;99.90;;;;;;4994684;28;20300;-65
2022/04/05 04:26:47;;;;;;;1.63;1.52;;;7.90;99.90;;;;;;5001429;28;20753;-66
2022/04/05 04:29:14;;;;;;;1.30;1.30;;;7.80;99.90;;;;;;5005573;28;20229;-66
2022/04/05 04:31:41;;;;;;;1.55;1.50;;;7.80;99.90;;;;;;5008636;28;20209;-67
2022/04/05 04:36:38;;;;;;;1.60;1.50;;;7.70;99.90;;;;;;5007267;28;20264;-63
2022/04/05 04:39:05;;;;;;;1.30;1.30;;;7.60;99.90;;;;;;5012079;28;20205;-63
2022/04/05 04:41:32;;;;;;;1.97;1.87;;;7.60;99.90;;;;;;5011796;28;20678;-64
2022/04/05 04:43:59;;;;;;;1.70;1.60;;;7.60;99.90;;;;;;5013307;28;20236;-64
2022/04/05 04:46:26;;;;;;;1.70;1.60;;;7.60;99.90;;;;;;5013012;28;20559;-64
2022/04/05 04:48:53;;;;;;;2.35;2.22;;;7.60;99.90;;;;;;5013379;28;20424;-65
2022/04/05 04:51:20;;;;;;;2.60;2.50;;;7.50;99.90;;;;;;5016954;28;20201;-64
2022/04/05 04:53:48;;;;;;;2.40;2.30;;;7.50;99.90;;;;;;5015265;28;20548;-65
2022/04/05 04:56:15;;;;;;;3.00;2.80;;;7.50;99.90;;;;;;5016236;28;20229;-64
2022/04/05 04:58:42;;;;;;;2.63;2.53;;;7.40;99.90;;;;;;5019029;28;20585;-65
2022/04/05 05:01:09;;;;;;;2.40;2.30;;;7.30;99.90;;;;;;5019295;28;20228;-64
2022/04/05 05:03:35;;;;;;;1.80;1.70;;;7.40;99.90;;;;;;5013227;28;20233;-64
2022/04/05 05:06:04;;;;;;;1.80;1.70;;;7.50;99.90;;;;;;5013632;28;20325;-63
2022/04/05 05:08:31;;;;;;;1.90;1.80;;;7.50;99.90;;;;;;5014063;28;20210;-64
2022/04/05 05:10:59;;;;;;;2.70;2.60;;;7.50;99.90;;;;;;5013701;28;20259;-64
2022/04/05 05:13:28;;;;;;;2.30;2.20;;;7.40;99.90;;;;;;5013666;28;20235;-65
2022/04/05 05:15:55;;;;;;;1.80;1.70;;;7.40;99.90;;;;;;5012647;28;20233;-62
2022/04/05 05:18:22;;;;;;;1.93;1.83;;;7.40;99.90;;;;;;5013125;28;20259;-64
2022/04/05 05:20:49;;;;;;;2.33;2.23;;;7.30;99.90;;;;;;5013450;28;20231;-65
2022/04/05 05:23:16;;;;;;;1.80;1.70;;;7.30;99.90;;;;;;5013110;28;20237;-63
2022/04/05 05:25:43;;;;;;;1.70;1.60;;;7.40;99.90;;;;;;5013668;28;20285;-63
2022/04/05 05:28:11;;;;;;;1.80;1.70;;;7.40;99.90;;;;;;5013484;28;20263;-65
2022/04/05 05:30:38;;;;;;;2.30;2.20;;;7.30;99.90;;;;;;5013969;28;20209;-65
2022/04/05 05:33:06;;;;;;;2.17;2.07;;;7.30;99.90;;;;;;5014190;28;20726;-64
2022/04/05 05:35:33;;;;;;;2.23;2.13;;;7.20;99.90;;;;;;5015950;28;20229;-66
2022/04/05 05:38:00;;;;;;;1.93;1.83;;;7.20;99.90;;;;;;5015610;28;20244;-64
2022/04/05 05:40:27;;;;;;;2.00;1.90;;;7.20;99.90;;;;;;5016305;28;20225;-62
2022/04/05 05:42:57;;;;;;;1.90;1.80;;;7.10;99.90;;;;;;5016585;28;20575;-64
2022/04/05 05:45:27;;;;;;;1.87;1.77;;;7.10;99.90;;;;;;5016701;28;20225;-63
2022/04/05 05:47:53;;;;;;;2.10;2.00;;;7.10;99.90;;;;;;5017141;28;20213;-62
2022/04/05 05:50:23;;;;;;;1.80;1.70;;;7.10;99.90;;;;;;5015210;28;20202;-63
2022/04/05 05:52:50;;;;;;;1.70;1.60;;;7.20;99.90;;;;;;5013286;28;20220;-65
2022/04/05 05:55:19;;;;;;;2.07;1.97;;;7.20;99.90;;;;;;5013196;28;20229;-63
2022/04/05 05:57:47;;;;;;;1.70;1.70;;;7.20;99.90;;;;;;5013150;28;20300;-64
2022/04/05 06:00:20;;;;;;;1.70;1.60;;;7.20;99.90;;;;;;5012593;28;20259;-64
2022/04/05 06:02:50;;;;;;;1.67;1.60;;;7.20;99.90;;;;;;5013740;28;20211;-62
2022/04/05 06:05:17;;;;;;;2.53;2.43;;;7.20;99.90;;;;;;5020308;28;20232;-64
2022/04/05 06:07:44;;;;;;;2.50;2.40;;;7.20;99.90;;;;;;5021235;28;20210;-66
2022/04/05 06:10:13;;;;;;;2.10;2.00;;;7.20;99.90;;;;;;5020172;28;20209;-64
2022/04/05 06:12:40;;;;;;;2.00;1.90;;;7.20;99.90;;;;;;5018789;28;20205;-64
2022/04/05 06:15:10;;;;;;;2.08;1.98;;;7.10;99.90;;;;;;5015848;28;20997;-64
2022/04/05 06:17:37;;;;;;;1.70;1.60;;;7.10;99.90;;;;;;5016335;28;20863;-64
2022/04/05 06:20:07;;;;;;;2.13;2.03;;;7.20;99.90;;;;;;5016569;28;20292;-63
2022/04/05 06:22:41;;;;;;;1.60;1.50;;;7.20;99.90;;;;;;5013302;28;20244;-61
2022/04/05 06:25:09;;;;;;;1.90;1.80;;;7.20;99.90;;;;;;5012519;28;20715;-65
2022/04/05 06:27:37;;;;;;;1.70;1.60;;;7.20;99.90;;;;;;5011215;28;20202;-64
2022/04/05 06:30:06;;;;;;;1.70;1.70;;;7.20;99.90;;;;;;5013427;28;20206;-63
2022/04/05 06:32:33;;;;;;;1.63;1.60;;;7.20;99.90;;;;;;5013097;28;20245;-63
2022/04/05 06:35:00;;;;;;;1.80;1.70;;;7.20;99.90;;;;;;5012251;28;20480;-64
2022/04/05 06:37:28;;;;;;;1.70;1.60;;;7.20;99.90;;;;;;5012619;28;20656;-63
2022/04/05 06:39:56;;;;;;;1.70;1.60;;;7.20;99.90;;;;;;5012833;28;20279;-64
2022/04/05 06:42:25;;;;;;;2.27;2.17;;;7.20;99.90;;;;;;5012836;28;20212;-63
2022/04/05 06:44:53;;;;;;;2.13;2.03;;;7.20;99.90;;;;;;5011687;28;20447;-64
2022/04/05 06:47:20;;;;;;;1.80;1.70;;;7.30;99.90;;;;;;5012544;28;20205;-63
2022/04/05 06:49:47;;;;;;;1.93;1.83;;;7.40;99.90;;;;;;5012706;28;20264;-64
2022/04/05 06:52:14;;;;;;;1.53;1.53;;;7.40;99.90;;;;;;5012067;28;20213;-64
2022/04/05 06:54:42;;;;;;;1.60;1.50;;;7.40;99.90;;;;;;5011347;28;20707;-64
2022/04/05 06:57:09;;;;;;;2.00;1.90;;;7.40;99.90;;;;;;5013237;28;20205;-64
2022/04/05 06:59:36;;;;;;;2.10;2.00;;;7.40;99.90;;;;;;5017465;28;20232;-64
2022/04/05 07:02:04;;;;;;;1.80;1.70;;;7.50;99.90;;;;;;5019250;28;20644;-64
2022/04/05 07:04:31;;;;;;;1.90;1.80;;;7.50;99.90;;;;;;5007818;28;20253;-62
2022/04/05 07:06:58;;;;;;;1.57;1.53;;;7.50;99.90;;;;;;4997976;28;20300;-64
2022/04/05 07:09:24;;;;;;;1.70;1.60;;;7.50;99.90;;;;;;4997521;28;20240;-63
2022/04/05 07:11:53;;;;;;;1.70;1.60;;;7.50;99.90;;;;;;5006159;28;20272;-63
2022/04/05 07:14:20;;;;;;;1.80;1.70;;;7.60;99.90;;;;;;5013133;28;20265;-62
2022/04/05 07:16:47;;;;;;;1.30;1.30;;;7.50;99.90;;;;;;5013680;28;20209;-64
2022/04/05 07:19:14;;;;;;;1.80;1.70;;;7.60;99.90;;;;;;5013763;28;20294;-64
2022/04/05 07:21:41;;;;;;;1.60;1.50;;;7.60;99.90;;;;;;5015032;28;20231;-62
2022/04/05 07:24:08;;;;;;;1.80;1.70;;;7.60;99.90;;;;;;5013094;28;20306;-63
2022/04/05 07:26:35;;;;;;;1.63;1.52;;;7.60;99.90;;;;;;5014544;28;20205;-63
2022/04/05 07:29:03;;;;;;;1.70;1.60;;;7.60;99.90;;;;;;5012946;28;20205;-64
2022/04/05 07:31:30;;;;;;;1.70;1.60;;;7.70;99.90;;;;;;5011084;28;20709;-64
2022/04/05 07:33:57;;;;;;;1.93;1.83;;;7.70;99.90;;;;;;5012649;28;20209;-63
2022/04/05 07:36:24;;;;;;;1.63;1.60;;;7.70;99.90;;;;;;5006322;28;20304;-64
2022/04/05 07:38:52;;;;;;;2.10;1.53;;;7.70;99.90;;;;;;5011533;28;20288;-64
2022/04/05 07:41:19;;;;;;;1.60;1.50;;;7.80;99.90;;;;;;5013361;28;20231;-63
2022/04/05 07:43:46;;;;;;;1.67;1.40;;;7.80;99.90;;;;;;5004608;28;20645;-63
2022/04/05 07:46:15;;;;;;;1.60;1.50;;;7.80;99.90;;;;;;5012867;28;20243;-64
2022/04/05 07:48:42;;;;;;;1.45;1.42;;;7.80;99.90;;;;;;5012598;28;20213;-64
2022/04/05 07:51:09;;;;;;;1.67;1.57;;;7.80;99.90;;;;;;5009365;28;20593;-65
2022/04/05 07:53:36;;;;;;;1.60;1.50;;;7.80;99.90;;;;;;5004315;28;20241;-62
2022/04/05 07:56:04;;;;;;;1.50;1.40;;;7.90;99.90;;;;;;5013835;28;20237;-63
2022/04/05 07:58:31;;;;;;;1.50;1.40;;;7.90;99.90;;;;;;5015476;28;20205;-63
2022/04/05 08:00:58;;;;;;;1.70;1.60;;;7.90;99.90;;;;;;5015606;28;20308;-63
2022/04/05 08:03:27;;;;;;;1.70;1.60;;;7.90;99.90;;;;;;5014329;28;20245;-63
2022/04/05 08:05:54;;;;;;;2.00;1.90;;;8.00;99.90;;;;;;5015223;28;20257;-64
2022/04/05 08:08:21;;;;;;;2.00;1.90;;;8.00;99.90;;;;;;5008569;28;20256;-64
2022/04/05 08:10:48;;;;;;;1.70;1.60;;;8.00;99.90;;;;;;5012151;28;20225;-63
2022/04/05 08:13:15;;;;;;;1.80;1.70;;;8.10;99.90;;;;;;5013750;28;20205;-63
2022/04/05 08:15:43;;;;;;;1.70;1.60;;;8.00;99.90;;;;;;5008175;28;20781;-63
2022/04/05 08:18:10;;;;;;;1.50;1.50;;;8.10;99.90;;;;;;5007511;28;20237;-64
2022/04/05 08:20:41;;;;;;;1.50;1.50;;;8.00;99.90;;;;;;5005230;28;20271;-63
2022/04/05 08:23:08;;;;;;;2.13;2.03;;;8.00;99.90;;;;;;5000261;28;20270;-63
2022/04/05 08:25:36;;;;;;;1.50;1.50;;;8.00;99.90;;;;;;5001994;28;20737;-64
2022/04/05 08:28:03;;;;;;;1.80;1.70;;;8.00;99.90;;;;;;4997343;28;20225;-64
2022/04/05 08:30:31;;;;;;;1.97;1.87;;;8.10;99.90;;;;;;4996093;28;20209;-62
2022/04/05 08:32:58;;;;;;;1.57;1.57;;;8.10;99.90;;;;;;4998937;28;20289;-63
2022/04/05 08:35:25;;;;;;;1.70;1.60;;;8.10;99.90;;;;;;4999112;28;20260;-64
2022/04/05 08:37:55;;;;;;;1.70;1.70;;;8.10;99.90;;;;;;4995437;28;20292;-63
2022/04/05 08:40:24;;;;;;;1.83;1.73;;;8.10;99.90;;;;;;4998547;28;20296;-64
2022/04/05 08:42:53;;;;;;;1.55;1.55;;;8.10;99.90;;;;;;4999508;28;20212;-63
2022/04/05 08:45:22;;;;;;;1.50;1.50;;;8.10;99.90;;;;;;5002352;28;20687;-62
2022/04/05 08:47:51;;;;;;;1.70;1.60;;;8.10;99.90;;;;;;5000619;28;20645;-63
2022/04/05 08:50:20;;;;;;;1.58;1.48;;;8.20;99.90;;;;;;5000340;28;20256;-65
2022/04/05 08:52:48;;;;;;;1.58;1.48;;;8.30;99.90;;;;;;4993833;28;20288;-62
2022/04/05 08:55:18;;;;;;;2.20;2.10;;;8.30;99.90;;;;;;4996332;28;20288;-64
2022/04/05 08:57:45;;;;;;;2.13;2.03;;;8.40;99.90;;;;;;5003061;28;20206;-64
2022/04/05 09:00:14;;;;;;;2.07;1.97;;;8.40;99.90;;;;;;5005765;28;20313;-62
2022/04/05 09:02:56;;;;;;;2.30;2.20;;;8.40;99.90;;;;;;4996170;28;20205;-63
2022/04/05 09:05:29;;;;;;;2.25;2.15;;;8.40;99.90;;;;;;4999820;28;20221;-64
2022/04/05 09:08:13;;;;;;;2.00;1.90;;;8.40;99.90;;;;;;4997816;28;20747;-62
2022/04/05 09:10:42;;;;;;;1.80;1.70;;;8.50;99.90;;;;;;4995906;28;20217;-64
2022/04/05 09:13:11;;;;;;;1.67;1.60;;;8.50;99.90;;;;;;4998064;28;20300;-63
2022/04/05 09:15:38;;;;;;;2.20;2.10;;;8.70;99.90;;;;;;4999869;28;20221;-64
2022/04/05 09:18:06;;;;;;;2.10;2.00;;;8.70;99.90;;;;;;5001478;28;20619;-63
2022/04/05 09:20:45;;;;;;;1.87;1.77;;;8.80;99.90;;;;;;4993858;28;20206;-63
2022/04/05 09:23:24;;;;;;;1.60;1.50;;;8.80;99.90;;;;;;4993782;28;20209;-62
2022/04/05 09:25:58;;;;;;;1.80;1.70;;;8.80;99.90;;;;;;4997176;28;20239;-63
2022/04/05 09:28:30;;;;;;;1.57;1.57;;;8.80;99.90;;;;;;4998992;28;20525;-64
2022/04/05 09:30:59;;;;;;;1.53;1.50;;;8.80;99.90;;;;;;5000295;28;20285;-63
2022/04/05 09:33:29;;;;;;;1.60;1.50;;;8.80;99.90;;;;;;5001085;28;20236;-63
2022/04/05 09:36:10;;;;;;;1.53;1.43;;;8.80;99.90;;;;;;4996423;28;20284;-63
2022/04/05 09:38:40;;;;;;;2.07;1.97;;;8.80;99.90;;;;;;5003220;28;20241;-65
2022/04/05 09:41:17;;;;;;;2.13;2.03;;;8.80;99.90;;;;;;4999802;28;20248;-64
2022/04/05 09:43:52;;;;;;;1.73;1.63;;;8.80;99.90;;;;;;4997824;28;20206;-63
2022/04/05 09:46:19;;;;;;;1.50;1.40;;;8.80;99.90;;;;;;5000139;28;20228;-63
2022/04/05 09:48:46;;;;;;;2.10;2.00;;;8.80;99.90;;;;;;4996832;28;20758;-63
2022/04/05 09:51:16;;;;;;;2.00;1.90;;;8.90;99.90;;;;;;5000578;28;20240;-64
2022/04/05 09:53:50;;;;;;;2.10;2.00;;;8.90;99.90;;;;;;5004287;28;20305;-64
2022/04/05 09:56:22;;;;;;;1.80;1.70;;;9.00;99.90;;;;;;5002111;28;20268;-63
2022/04/05 09:58:51;;;;;;;1.87;1.77;;;9.00;99.90;;;;;;4997084;28;20517;-64
2022/04/05 10:01:20;;;;;;;1.70;1.60;;;9.00;99.90;;;;;;4998805;28;20218;-64
2022/04/05 10:03:58;;;;;;;2.47;2.28;;;9.00;99.90;;;;;;4999067;28;20202;-64
2022/04/05 10:06:25;;;;;;;1.73;1.63;;;9.00;99.90;;;;;;4999888;28;20251;-64
2022/04/05 10:08:55;;;;;;;1.50;1.50;;;9.10;99.90;;;;;;5000744;28;20209;-65
2022/04/05 10:11:25;;;;;;;1.50;1.40;;;9.20;99.90;;;;;;5005766;28;20232;-64
2022/04/05 10:13:53;;;;;;;1.50;1.50;;;9.20;99.90;;;;;;5006326;28;20218;-63
2022/04/05 10:16:23;;;;;;;1.60;1.50;;;9.20;99.90;;;;;;5010820;28;20221;-62
2022/04/05 10:18:53;;;;;;;1.47;1.40;;;9.20;99.90;;;;;;5015223;28;20241;-63
2022/04/05 10:21:21;;;;;;;1.33;1.33;;;9.30;99.90;;;;;;5016423;28;20213;-64
2022/04/05 10:23:48;;;;;;;1.50;1.40;;;9.30;99.90;;;;;;5011432;28;20229;-65
2022/04/05 10:26:18;;;;;;;1.40;1.40;;;9.30;99.90;;;;;;5009824;28;20252;-64
2022/04/05 10:28:50;;;;;;;1.60;1.50;;;9.30;99.90;;;;;;5003558;28;20197;-64
2022/04/05 10:31:23;;;;;;;1.50;1.50;;;9.30;99.90;;;;;;4996811;28;20276;-64
2022/04/05 10:34:00;;;;;;;1.30;1.30;;;9.40;99.90;;;;;;4999957;28;20289;-63
2022/04/05 10:36:28;;;;;;;1.30;1.30;;;9.40;99.90;;;;;;5023203;23;20231;-65
2022/04/05 10:39:15;;;;;;;1.60;1.50;;;9.40;99.90;;;;;;5026235;28;20205;-67
2022/04/05 10:41:43;;;;;;;1.37;1.37;;;9.40;99.90;;;;;;5029253;28;20303;-70
2022/04/05 10:44:27;;;;;;;1.67;1.57;;;9.40;99.90;;;;;;5024368;28;20301;-66
2022/04/05 10:46:57;;;;;;;1.30;1.30;;;9.40;99.90;;;;;;5018696;28;20232;-66
2022/04/05 10:49:47;;;;;;;1.60;1.50;;;9.50;99.90;;;;;;5019932;28;20685;-68
2022/04/05 10:52:16;;;;;;;1.70;1.60;;;9.50;99.90;;;;;;5012904;28;20710;-67
2022/04/05 10:54:44;;;;;;;1.40;1.40;;;9.50;99.90;;;;;;5018238;28;20201;-66
2022/04/05 10:57:18;;;;;;;1.40;1.40;;;9.50;99.90;;;;;;5025417;28;20901;-65
2022/04/05 10:59:54;;;;;;;1.40;1.40;;;9.50;99.90;;;;;;5037818;28;20252;-66
2022/04/05 11:02:41;;;;;;;1.50;1.40;;;9.40;99.90;;;;;;5032078;28;20265;-67
2022/04/05 11:05:35;;;;;;;1.40;1.30;;;9.50;99.90;;;;;;5036184;28;20200;-66
2022/04/05 11:08:06;;;;;;;1.40;1.40;;;9.60;99.90;;;;;;5032289;28;20214;-66
2022/04/05 11:10:55;;;;;;;1.60;1.50;;;9.60;99.90;;;;;;5018768;28;20719;-65
2022/04/05 11:13:31;;;;;;;1.67;1.57;;;9.70;99.90;;;;;;5018423;28;20213;-64
2022/04/05 11:16:00;;;;;;;1.43;1.43;;;9.70;99.90;;;;;;5017736;28;20228;-66
2022/04/05 11:18:29;;;;;;;1.80;1.70;;;9.70;99.90;;;;;;5025228;28;20270;-67
2022/04/05 11:20:58;;;;;;;1.63;1.57;;;9.70;99.90;;;;;;5024774;28;20205;-67
2022/04/05 11:23:43;;;;;;;2.23;1.60;;;9.70;99.90;;;;;;5023473;28;20213;-66
2022/04/05 11:26:38;;;;;;;1.60;1.50;;;9.60;99.90;;;;;;5015401;28;20225;-68
2022/04/05 11:29:20;;;;;;;1.63;1.50;;;9.70;99.90;;;;;;4989926;28;20552;-67
2022/04/05 11:32:07;;;;;;;1.27;1.27;;;9.80;99.90;;;;;;5017673;28;20194;-66
2022/04/05 11:34:37;;;;;;;1.50;1.40;;;9.80;99.90;;;;;;5024770;28;20205;-67
2022/04/05 11:37:05;;;;;;;1.23;1.23;;;9.80;99.90;;;;;;5018050;28;20236;-65
2022/04/05 11:39:37;;;;;;;1.30;1.30;;;9.80;99.90;;;;;;5021818;28;20224;-65
2022/04/05 11:42:04;;;;;;;1.98;1.88;;;10.00;99.90;;;;;;5018797;28;20278;-68
2022/04/05 11:44:31;;;;;;;1.57;1.50;;;9.80;99.90;;;;;;5044421;28;20209;-68
2022/04/05 11:47:01;;;;;;;2.13;2.03;;;9.80;99.90;;;;;;5048757;28;20263;-66
2022/04/05 11:49:28;;;;;;;1.90;1.80;;;9.70;99.90;;;;;;5051764;28;20203;-65
2022/04/05 11:51:55;;;;;;;2.00;1.90;;;9.70;99.90;;;;;;5051621;28;20233;-66
2022/04/05 11:54:24;;;;;;;1.60;1.50;;;9.70;99.90;;;;;;5020828;28;20580;-64
2022/04/05 11:56:52;;;;;;;1.53;1.53;;;9.80;99.90;;;;;;5018556;28;20256;-66
2022/04/05 11:59:26;;;;;;;1.92;1.83;;;9.80;99.90;;;;;;5019369;28;20205;-65
2022/04/05 12:01:52;;;;;;;1.70;1.60;;;9.80;99.90;;;;;;5018158;28;20217;-66
2022/04/05 12:04:22;;;;;;;1.47;1.40;;;9.70;99.90;;;;;;5016461;28;20288;-67
2022/04/05 12:06:54;;;;;;;1.33;1.33;;;9.80;99.90;;;;;;5021580;28;20258;-67
2022/04/05 12:09:23;;;;;;;1.60;1.50;;;9.80;99.90;;;;;;5019262;28;20613;-65
2022/04/05 12:11:52;;;;;;;1.90;1.80;;;9.70;99.90;;;;;;5025372;28;20194;-64
2022/04/05 12:14:21;;;;;;;1.50;1.50;;;9.70;99.90;;;;;;5020365;28;20251;-66
2022/04/05 12:16:50;;;;;;;1.73;1.63;;;9.70;99.90;;;;;;5016439;28;20252;-67
2022/04/05 12:19:23;;;;;;;1.90;1.80;;;9.60;99.90;;;;;;5023356;28;20205;-65
2022/04/05 12:21:54;;;;;;;2.05;1.95;;;9.60;99.90;;;;;;5018659;28;20340;-67
2022/04/05 12:24:22;;;;;;;2.00;1.90;;;9.60;99.90;;;;;;5021926;28;20292;-67
2022/04/05 12:26:50;;;;;;;1.90;1.80;;;9.60;99.90;;;;;;5019958;28;20312;-65
2022/04/05 12:29:17;;;;;;;1.80;1.70;;;9.50;99.90;;;;;;5023258;28;20582;-66
2022/04/05 12:31:44;;;;;;;1.70;1.60;;;9.60;99.90;;;;;;5036708;28;20264;-66
2022/04/05 12:34:13;;;;;;;1.80;1.70;;;9.50;99.90;;;;;;5032990;28;20239;-65
2022/04/05 12:36:44;;;;;;;1.65;1.60;;;9.60;99.90;;;;;;5022965;28;20233;-67
2022/04/05 12:39:18;;;;;;;1.57;1.47;;;9.60;99.90;;;;;;5025224;28;20228;-68
2022/04/05 12:41:47;;;;;;;1.40;1.40;;;9.60;99.90;;;;;;5026268;28;20234;-66
2022/04/05 12:44:16;;;;;;;1.50;1.50;;;9.60;99.90;;;;;;5016972;28;20296;-67
2022/04/05 12:46:48;;;;;;;1.40;1.40;;;9.70;99.90;;;;;;5018878;28;20297;-67
2022/04/05 12:49:24;;;;;;;1.70;1.60;;;9.70;99.90;;;;;;5020005;28;20280;-67
2022/04/05 12:51:53;;;;;;;1.53;1.53;;;9.70;99.90;;;;;;5022777;28;20247;-67
2022/04/05 12:54:31;;;;;;;1.43;1.43;;;9.80;99.90;;;;;;5023703;28;20667;-67
2022/04/05 12:57:26;;;;;;;1.63;1.53;;;9.80;99.90;;;;;;5031482;28;20232;-66
2022/04/05 12:59:57;;;;;;;1.30;1.30;;;9.80;99.90;;;;;;5030998;28;20208;-67
2022/04/05 13:02:26;;;;;;;1.60;1.50;;;9.90;99.90;;;;;;5030000;28;20278;-67
2022/04/05 13:06:19;;;;;;;1.60;1.50;;;9.90;99.90;;;;;;5016241;28;20209;-65
2022/04/05 13:07:53;;;;;;;1.67;1.58;;;10.00;99.90;;;;;;5011720;28;20625;-68
2022/04/05 13:10:20;;;;;;;1.33;1.30;;;9.90;99.90;;;;;;5012097;28;20225;-66